createdAt,value
2024-01-12T00:00:22.033Z,-4.24
2024-01-12T00:02:48.594Z,-4.10
2024-01-12T00:05:15.303Z,-3.98
2024-01-12T00:07:41.872Z,-4.00
2024-01-12T00:10:09.754Z,-4.07
2024-01-12T00:12:36.153Z,-3.94
2024-01-12T00:15:04.155Z,-3.88
2024-01-12T00:17:30.799Z,-3.94
2024-01-12T00:19:57.298Z,-3.85
2024-01-12T00:22:23.754Z,-3.93
2024-01-12T00:24:50.253Z,-3.86
2024-01-12T00:27:16.708Z,-3.88
2024-01-12T00:29:43.208Z,-3.74
2024-01-12T00:32:09.641Z,-3.83
2024-01-12T00:34:36.088Z,-3.86
2024-01-12T00:37:02.659Z,-3.74
2024-01-12T00:39:29.064Z,-3.53
2024-01-12T00:41:55.655Z,-3.73
2024-01-12T00:44:23.166Z,-3.61
2024-01-12T00:46:52.115Z,-3.58
2024-01-12T00:49:20.159Z,-3.56
2024-01-12T00:51:47.543Z,-3.57
2024-01-12T00:54:14.346Z,-3.64
2024-01-12T00:56:41.151Z,-3.68
2024-01-12T00:59:08.257Z,-3.64
2024-01-12T01:01:35.567Z,-3.68
2024-01-12T01:04:02.307Z,-3.64
2024-01-12T01:06:29.258Z,-3.51
2024-01-12T01:08:55.881Z,-3.53
2024-01-12T01:11:22.549Z,-3.50
2024-01-12T01:13:49.097Z,-3.44
2024-01-12T01:16:15.509Z,-3.29
2024-01-12T01:18:42.236Z,-3.27
2024-01-12T01:21:08.849Z,-3.24
2024-01-12T01:23:35.552Z,-3.36
2024-01-12T01:26:02.042Z,-3.39
2024-01-12T01:28:28.465Z,-3.24
2024-01-12T01:30:55.090Z,-3.21
2024-01-12T01:33:21.639Z,-3.37
2024-01-12T01:35:48.143Z,-3.35
2024-01-12T01:38:14.680Z,-3.30
2024-01-12T01:40:41.267Z,-3.28
2024-01-12T01:43:09.746Z,-3.33
2024-01-12T01:45:37.452Z,-3.32
2024-01-12T01:48:07.815Z,-3.34
2024-01-12T01:50:35.604Z,-3.20
2024-01-12T01:53:03.767Z,-3.10
2024-01-12T01:55:31.749Z,-3.09
2024-01-12T01:58:01.070Z,-2.98
2024-01-12T02:00:27.775Z,-3.03
2024-01-12T02:02:55.134Z,-3.15
2024-01-12T02:05:23.333Z,-3.33
2024-01-12T02:07:49.728Z,-3.25
2024-01-12T02:10:16.139Z,-3.22
2024-01-12T02:12:42.864Z,-3.19
2024-01-12T02:15:10.783Z,-3.10
2024-01-12T02:17:37.828Z,-3.00
2024-01-12T02:20:04.814Z,-3.08
2024-01-12T02:26:17.501Z,-3.11
2024-01-12T02:28:44.127Z,-2.96
2024-01-12T02:31:11.426Z,-2.91
2024-01-12T02:33:37.767Z,-2.90
2024-01-12T02:36:04.461Z,-2.91
2024-01-12T02:38:31.413Z,-2.95
2024-01-12T02:40:57.838Z,-2.93
2024-01-12T02:43:24.259Z,-3.01
2024-01-12T02:45:50.722Z,-2.96
2024-01-12T02:48:17.185Z,-2.86
2024-01-12T02:50:43.771Z,-2.76
2024-01-12T02:53:10.377Z,-2.71
2024-01-12T02:55:36.785Z,-2.79
2024-01-12T02:58:03.286Z,-2.75
2024-01-12T03:00:31.860Z,-2.72
2024-01-12T03:02:58.661Z,-2.81
2024-01-12T03:05:25.221Z,-2.87
2024-01-12T03:07:51.650Z,-2.82
2024-01-12T03:10:18.631Z,-2.73
2024-01-12T03:12:45.040Z,-2.61
2024-01-12T03:15:11.452Z,-2.62
2024-01-12T03:17:38.151Z,-2.55
2024-01-12T03:20:06.259Z,-2.57
2024-01-12T03:22:32.813Z,-2.57
2024-01-12T03:24:59.236Z,-2.58
2024-01-12T03:27:25.954Z,-2.42
2024-01-12T03:29:52.478Z,-2.34
2024-01-12T03:32:19.113Z,-2.22
2024-01-12T03:34:45.605Z,-2.25
2024-01-12T03:37:12.091Z,-2.31
2024-01-12T03:39:38.501Z,-2.40
2024-01-12T03:42:05.395Z,-2.41
2024-01-12T03:44:31.898Z,-2.47
2024-01-12T03:46:58.353Z,-2.47
2024-01-12T03:49:24.903Z,-2.56
2024-01-12T03:51:58.159Z,-2.48
2024-01-12T03:54:40.628Z,-2.40
2024-01-12T03:57:07.016Z,-2.44
2024-01-12T03:59:33.827Z,-2.35
2024-01-12T04:02:00.235Z,-2.23
2024-01-12T04:04:26.796Z,-2.39
2024-01-12T04:06:53.243Z,-2.33
2024-01-12T04:09:19.772Z,-2.30
2024-01-12T04:11:46.111Z,-2.22
2024-01-12T04:14:13.503Z,-2.19
2024-01-12T04:16:40.052Z,-2.20
2024-01-12T04:19:06.763Z,-2.32
2024-01-12T04:21:33.201Z,-2.27
2024-01-12T04:24:01.233Z,-2.26
2024-01-12T04:26:27.761Z,-2.23
2024-01-12T04:28:54.572Z,-2.33
2024-01-12T04:31:21.026Z,-2.35
2024-01-12T04:33:47.566Z,-2.16
2024-01-12T04:36:14.073Z,-2.12
2024-01-12T04:38:40.553Z,-2.06
2024-01-12T04:41:06.973Z,-2.15
2024-01-12T04:43:33.406Z,-2.19
2024-01-12T04:45:59.833Z,-2.13
2024-01-12T04:48:26.387Z,-2.10
2024-01-12T04:50:52.968Z,-2.06
2024-01-12T04:53:19.890Z,-2.02
2024-01-12T04:55:47.072Z,-2.13
2024-01-12T04:58:13.525Z,-2.07
2024-01-12T05:00:40.004Z,-2.07
2024-01-12T05:03:06.480Z,-2.10
2024-01-12T05:05:33.080Z,-2.05
2024-01-12T05:07:59.548Z,-2.02
2024-01-12T05:10:25.939Z,-1.83
2024-01-12T05:12:52.326Z,-1.78
2024-01-12T05:15:18.852Z,-1.91
2024-01-12T05:17:45.624Z,-1.97
2024-01-12T05:20:12.360Z,-1.89
2024-01-12T05:22:39.008Z,-1.93
2024-01-12T05:25:06.157Z,-1.78
2024-01-12T05:27:32.780Z,-1.84
2024-01-12T05:30:03.230Z,-1.86
2024-01-12T05:32:30.930Z,-1.96
2024-01-12T05:34:58.378Z,-1.99
2024-01-12T05:37:24.866Z,-1.98
2024-01-12T05:39:52.041Z,-1.91
2024-01-12T05:42:18.483Z,-1.81
2024-01-12T05:44:44.924Z,-1.75
2024-01-12T05:47:11.434Z,-1.83
2024-01-12T05:49:38.986Z,-1.77
2024-01-12T05:52:05.999Z,-1.86
2024-01-12T05:54:32.664Z,-1.79
2024-01-12T05:56:59.278Z,-1.76
2024-01-12T05:59:25.828Z,-1.81
2024-01-12T06:01:52.312Z,-1.85
2024-01-12T06:04:18.772Z,-1.92
2024-01-12T06:06:45.275Z,-1.96
2024-01-12T06:09:11.789Z,-1.93
2024-01-12T06:11:45.087Z,-1.88
2024-01-12T06:14:12.068Z,-1.86
2024-01-12T06:16:38.845Z,-1.74
2024-01-12T06:19:05.585Z,-1.66
2024-01-12T06:21:32.072Z,-1.62
2024-01-12T06:23:58.529Z,-1.69
2024-01-12T06:26:25.049Z,-1.64
2024-01-12T06:29:00.801Z,-1.60
2024-01-12T06:31:32.209Z,-1.51
2024-01-12T06:33:58.753Z,-1.71
2024-01-12T06:36:25.837Z,-1.73
2024-01-12T06:38:56.161Z,-1.74
2024-01-12T06:41:23.242Z,-1.62
2024-01-12T06:43:49.767Z,-1.66
2024-01-12T06:46:16.262Z,-1.63
2024-01-12T06:48:42.668Z,-1.54
2024-01-12T06:51:09.212Z,-1.59
2024-01-12T06:53:35.795Z,-1.41
2024-01-12T06:56:04.812Z,-1.46
2024-01-12T06:58:31.379Z,-1.49
2024-01-12T07:00:59.951Z,-1.50
2024-01-12T07:03:26.620Z,-1.59
2024-01-12T07:05:53.284Z,-1.52
2024-01-12T07:08:19.851Z,-1.42
2024-01-12T07:10:46.933Z,-1.43
2024-01-12T07:13:14.535Z,-1.31
2024-01-12T07:15:40.980Z,-1.40
2024-01-12T07:18:07.562Z,-1.48
2024-01-12T07:20:34.133Z,-1.48
2024-01-12T07:23:00.493Z,-1.42
2024-01-12T07:25:26.877Z,-1.43
2024-01-12T07:27:53.334Z,-1.30
2024-01-12T07:30:19.901Z,-1.35
2024-01-12T07:32:46.544Z,-1.39
2024-01-12T07:35:13.305Z,-1.41
2024-01-12T07:37:39.758Z,-1.25
2024-01-12T07:40:06.678Z,-1.19
2024-01-12T07:42:33.254Z,-1.16
2024-01-12T07:45:00.628Z,-1.19
2024-01-12T07:47:27.263Z,-1.29
2024-01-12T07:52:44.329Z,-1.09
2024-01-12T07:55:11.024Z,-1.07
2024-01-12T07:57:37.483Z,-1.06
2024-01-12T08:00:05.087Z,-0.95
2024-01-12T08:02:31.597Z,-1.08
2024-01-12T08:04:58.196Z,-1.18
2024-01-12T08:07:24.752Z,-1.24
2024-01-12T08:09:51.183Z,-1.21
2024-01-12T08:12:17.598Z,-1.20
2024-01-12T08:14:44.132Z,-1.10
2024-01-12T08:17:10.626Z,-1.14
2024-01-12T08:19:37.153Z,-0.95
2024-01-12T08:22:05.243Z,-1.08
2024-01-12T08:24:31.870Z,-0.96
2024-01-12T08:26:58.370Z,-0.93
2024-01-12T08:29:24.817Z,-0.97
2024-01-12T08:31:52.499Z,-0.90
2024-01-12T08:34:19.973Z,-0.78
2024-01-12T08:36:46.520Z,-0.77
2024-01-12T08:39:12.965Z,-0.67
2024-01-12T08:41:39.446Z,-0.54
2024-01-12T08:44:05.914Z,-0.41
2024-01-12T08:46:32.527Z,-0.62
2024-01-12T08:48:59.965Z,-0.73
2024-01-12T08:51:26.519Z,-0.77
2024-01-12T08:53:53.108Z,-0.69
2024-01-12T08:56:19.743Z,-0.66
2024-01-12T08:58:46.192Z,-0.65
2024-01-12T09:01:13.727Z,-0.69
2024-01-12T09:03:40.507Z,-0.58
2024-01-12T09:06:07.279Z,-0.63
2024-01-12T09:08:33.733Z,-0.71
2024-01-12T09:11:02.115Z,-0.83
2024-01-12T09:13:28.551Z,-0.74
2024-01-12T09:15:55.187Z,-0.73
2024-01-12T09:18:21.757Z,-0.73
2024-01-12T09:20:48.244Z,-0.80
2024-01-12T09:23:14.720Z,-0.79
2024-01-12T09:25:41.304Z,-0.65
2024-01-12T09:28:08.011Z,-0.67
2024-01-12T09:30:34.441Z,-0.63
2024-01-12T09:33:01.117Z,-0.43
2024-01-12T09:35:27.699Z,-0.53
2024-01-12T09:37:54.175Z,-0.46
2024-01-12T09:40:20.606Z,-0.46
2024-01-12T09:42:49.945Z,-0.53
2024-01-12T09:45:22.467Z,-0.49
2024-01-12T09:47:51.188Z,-0.48
2024-01-12T09:50:18.729Z,-0.54
2024-01-12T09:52:45.321Z,-0.53
2024-01-12T09:55:12.056Z,-0.50
2024-01-12T09:57:40.038Z,-0.50
2024-01-12T10:00:08.084Z,-0.34
2024-01-12T10:02:34.861Z,-0.27
2024-01-12T10:05:02.007Z,-0.33
2024-01-12T10:07:28.333Z,-0.37
2024-01-12T10:09:54.888Z,-0.37
2024-01-12T10:12:21.325Z,-0.49
2024-01-12T10:14:47.852Z,-0.49
2024-01-12T10:17:15.187Z,-0.53
2024-01-12T10:19:42.139Z,-0.47
2024-01-12T10:22:14.155Z,-0.50
2024-01-12T10:24:41.560Z,-0.41
2024-01-12T10:27:08.218Z,-0.43
2024-01-12T10:29:40.699Z,-0.48
2024-01-12T10:32:07.740Z,-0.51
2024-01-12T10:34:35.207Z,-0.48
2024-01-12T10:37:03.383Z,-0.46
2024-01-12T10:39:34.982Z,-0.40
2024-01-12T10:42:03.124Z,-0.39
2024-01-12T10:44:34.288Z,-0.39
2024-01-12T10:47:06.299Z,-0.34
2024-01-12T10:49:47.206Z,-0.36
2024-01-12T10:52:21.676Z,-0.35
2024-01-12T10:55:17.999Z,-0.21
2024-01-12T10:57:46.668Z,-0.08
2024-01-12T11:00:15.510Z,-0.08
2024-01-12T11:02:43.617Z,-0.08
2024-01-12T11:05:12.073Z,-0.24
2024-01-12T11:07:41.369Z,1.12
2024-01-12T11:10:08.642Z,0.30
2024-01-12T11:12:39.037Z,0.08
2024-01-12T11:15:07.398Z,0.10
2024-01-12T11:17:35.909Z,-0.06
2024-01-12T11:20:12.146Z,-0.06
2024-01-12T11:22:40.450Z,0.01
2024-01-12T11:25:09.050Z,-0.20
2024-01-12T11:27:38.610Z,-0.16
2024-01-12T11:30:15.009Z,-0.16
2024-01-12T11:32:43.631Z,-0.06
2024-01-12T11:35:18.195Z,-0.10
2024-01-12T11:38:05.960Z,-0.12
2024-01-12T11:40:34.369Z,-0.09
2024-01-12T11:43:01.657Z,0.01
2024-01-12T11:45:33.130Z,-0.08
2024-01-12T11:48:03.754Z,-0.09
2024-01-12T11:50:30.800Z,-0.08
2024-01-12T11:53:01.478Z,-0.15
2024-01-12T11:55:28.378Z,-0.20
2024-01-12T11:57:55.722Z,-0.14
2024-01-12T12:00:24.481Z,-0.15
2024-01-12T12:02:54.292Z,-0.18
2024-01-12T12:05:24.077Z,-0.21
2024-01-12T12:07:50.692Z,-0.25
2024-01-12T12:10:21.380Z,-0.28
2024-01-12T12:12:49.846Z,-0.18
2024-01-12T12:15:16.325Z,-0.11
2024-01-12T12:17:45.657Z,-0.13
2024-01-12T12:20:12.800Z,-0.14
2024-01-12T12:22:43.741Z,-0.13
2024-01-12T12:25:15.266Z,-0.13
2024-01-12T12:27:44.087Z,-0.10
2024-01-12T12:30:15.055Z,-0.05
2024-01-12T12:32:43.613Z,-0.05
2024-01-12T12:35:14.641Z,-0.07
2024-01-12T12:37:42.102Z,-0.03
2024-01-12T12:40:13.425Z,-0.02
2024-01-12T12:42:41.192Z,-0.05
2024-01-12T12:45:08.878Z,0.05
2024-01-12T12:47:37.298Z,0.02
2024-01-12T12:50:05.950Z,-0.07
2024-01-12T12:52:33.410Z,-0.03
2024-01-12T12:55:01.132Z,-0.06
2024-01-12T12:57:28.375Z,-0.07
2024-01-12T12:59:54.888Z,-0.09
2024-01-12T13:02:21.517Z,-0.08
2024-01-12T13:04:48.480Z,-0.20
2024-01-12T13:07:15.532Z,-0.15
2024-01-12T13:09:42.477Z,-0.14
2024-01-12T13:12:10.341Z,-0.23
2024-01-12T13:14:37.085Z,-0.07
2024-01-12T13:17:04.500Z,-0.16
2024-01-12T13:19:31.557Z,-0.15
2024-01-12T13:21:58.206Z,-0.23
2024-01-12T13:24:24.997Z,-0.19
2024-01-12T13:26:51.608Z,-0.20
2024-01-12T13:29:18.081Z,-0.17
2024-01-12T13:31:44.683Z,-0.22
2024-01-12T13:34:14.272Z,-0.18
2024-01-12T13:36:48.897Z,-0.12
2024-01-12T13:39:15.552Z,-0.13
2024-01-12T13:41:42.226Z,-0.11
2024-01-12T13:44:08.637Z,0.01
2024-01-12T13:46:35.121Z,-0.16
2024-01-12T13:49:01.777Z,-0.19
2024-01-12T13:51:28.574Z,-0.12
2024-01-12T13:53:55.893Z,-0.19
2024-01-12T13:56:22.514Z,-0.19
2024-01-12T13:58:48.981Z,-0.19
2024-01-12T14:01:16.186Z,-0.20
2024-01-12T14:03:46.151Z,-0.20
2024-01-12T14:06:14.425Z,-0.22
2024-01-12T14:08:41.760Z,-0.03
2024-01-12T14:11:08.131Z,0.03
2024-01-12T14:13:34.917Z,-0.05
2024-01-12T14:16:01.422Z,-0.05
2024-01-12T14:18:28.044Z,0.02
2024-01-12T14:20:57.238Z,0.06
2024-01-12T14:23:23.832Z,0.08
2024-01-12T14:25:50.740Z,0.06
2024-01-12T14:28:24.328Z,0.04
2024-01-12T14:30:58.979Z,0.03
2024-01-12T14:33:27.234Z,0.14
2024-01-12T14:35:54.007Z,0.10
2024-01-12T14:38:20.486Z,0.04
2024-01-12T14:40:46.945Z,0.07
2024-01-12T14:43:13.349Z,0.05
2024-01-12T14:45:39.779Z,0.07
2024-01-12T14:48:10.660Z,0.07
2024-01-12T14:50:39.348Z,0.13
2024-01-12T14:53:06.074Z,0.23
2024-01-12T14:55:32.941Z,0.10
2024-01-12T14:57:59.763Z,0.06
2024-01-12T15:00:26.457Z,0.15
2024-01-12T15:02:53.100Z,0.21
2024-01-12T15:05:19.545Z,0.44
2024-01-12T15:07:46.321Z,0.16
2024-01-12T15:10:13.029Z,0.14
2024-01-12T15:12:40.630Z,0.08
2024-01-12T15:15:07.706Z,0.15
2024-01-12T15:17:34.608Z,0.14
2024-01-12T15:20:01.279Z,0.11
2024-01-12T15:22:27.784Z,0.18
2024-01-12T15:24:54.539Z,0.09
2024-01-12T15:27:21.631Z,0.09
2024-01-12T15:29:48.085Z,0.13
2024-01-12T15:32:14.523Z,0.12
2024-01-12T15:34:41.244Z,0.05
2024-01-12T15:37:07.887Z,-0.04
2024-01-12T15:39:34.357Z,-0.06
2024-01-12T15:42:00.930Z,-0.04
2024-01-12T15:44:27.481Z,-0.01
2024-01-12T15:46:53.925Z,-0.14
2024-01-12T15:49:20.763Z,-0.11
2024-01-12T15:51:48.921Z,-0.20
2024-01-12T15:54:15.473Z,-0.20
2024-01-12T15:56:41.917Z,-0.08
2024-01-12T15:59:08.376Z,-0.03
2024-01-12T16:01:34.805Z,-0.10
2024-01-12T16:04:01.286Z,-0.18
2024-01-12T16:06:27.877Z,-0.21
2024-01-12T16:08:54.585Z,-0.12
2024-01-12T16:11:22.510Z,-0.15
2024-01-12T16:13:50.138Z,-0.17
2024-01-12T16:16:16.586Z,-0.22
2024-01-12T16:18:43.413Z,-0.24
2024-01-12T16:21:10.966Z,-0.27
2024-01-12T16:23:40.994Z,-0.24
2024-01-12T16:26:07.631Z,-0.20
2024-01-12T16:28:33.998Z,-0.21
2024-01-12T16:31:00.512Z,-0.25
2024-01-12T16:33:28.164Z,-0.25
2024-01-12T16:35:54.720Z,-0.22
2024-01-12T16:38:21.151Z,-0.17
2024-01-12T16:40:47.529Z,-0.16
2024-01-12T16:43:13.923Z,-0.11
2024-01-12T16:45:40.870Z,-0.15
2024-01-12T16:48:07.704Z,-0.15
2024-01-12T16:50:34.327Z,-0.19
2024-01-12T16:53:00.863Z,-0.26
2024-01-12T16:55:27.868Z,-0.23
2024-01-12T16:57:54.315Z,-0.28
2024-01-12T17:00:20.815Z,-0.18
2024-01-12T17:02:47.359Z,-0.09
2024-01-12T17:05:14.377Z,0.22
2024-01-12T17:07:40.846Z,0.07
2024-01-12T17:10:09.140Z,-0.14
2024-01-12T17:12:36.273Z,-0.17
2024-01-12T17:15:03.572Z,0.00
2024-01-12T17:17:31.178Z,-0.15
2024-01-12T17:19:58.330Z,-0.23
2024-01-12T17:22:24.981Z,-0.25
2024-01-12T17:24:53.146Z,-0.15
2024-01-12T17:27:20.073Z,-0.09
2024-01-12T17:29:47.463Z,-0.16
2024-01-12T17:32:14.006Z,-0.13
2024-01-12T17:34:40.674Z,-0.16
2024-01-12T17:37:07.276Z,0.03
2024-01-12T17:39:34.605Z,0.06
2024-01-12T17:42:01.048Z,-0.06
2024-01-12T17:44:27.524Z,-0.11
2024-01-12T17:46:53.941Z,0.08
2024-01-12T17:49:21.868Z,-0.02
2024-01-12T17:51:49.395Z,-0.14
2024-01-12T17:54:15.934Z,-0.12
2024-01-12T17:56:42.411Z,-0.03
2024-01-12T17:59:10.245Z,-0.03
2024-01-12T18:01:36.679Z,-0.16
2024-01-12T18:04:03.699Z,-0.18
2024-01-12T18:06:30.316Z,0.07
2024-01-12T18:08:57.996Z,0.05
2024-01-12T18:11:24.735Z,-0.17
2024-01-12T18:13:51.302Z,-0.05
2024-01-12T18:16:17.832Z,-0.06
2024-01-12T18:18:44.504Z,0.00
2024-01-12T18:21:11.127Z,0.03
2024-01-12T18:23:37.612Z,-0.04
2024-01-12T18:26:04.092Z,0.02
2024-01-12T18:28:30.495Z,0.14
2024-01-12T18:30:57.003Z,-0.02
2024-01-12T18:33:23.694Z,0.15
2024-01-12T18:35:50.687Z,0.18
2024-01-12T18:38:17.253Z,-0.04
2024-01-12T18:40:43.806Z,-0.13
2024-01-12T18:43:13.272Z,-0.16
2024-01-12T18:45:40.262Z,-0.14
2024-01-12T18:48:07.334Z,-0.17
2024-01-12T18:50:33.958Z,-0.17
2024-01-12T18:53:00.401Z,-0.16
2024-01-12T18:55:26.817Z,-0.06
2024-01-12T18:57:54.898Z,-0.07
2024-01-12T19:00:21.865Z,0.06
2024-01-12T19:02:48.519Z,0.13
2024-01-12T19:05:15.122Z,0.12
2024-01-12T19:07:41.677Z,0.17
2024-01-12T19:10:09.076Z,0.07
2024-01-12T19:12:35.620Z,0.05
2024-01-12T19:15:02.450Z,0.08
2024-01-12T19:17:29.014Z,-0.07
2024-01-12T19:19:57.637Z,0.06
2024-01-12T19:22:24.224Z,0.05
2024-01-12T19:24:51.088Z,0.08
2024-01-12T19:27:17.652Z,0.10
2024-01-12T19:29:47.034Z,-0.05
2024-01-12T19:32:14.506Z,0.02
2024-01-12T19:34:42.121Z,0.05
2024-01-12T19:37:08.957Z,0.08
2024-01-12T19:39:35.653Z,0.05
2024-01-12T19:42:02.249Z,0.07
2024-01-12T19:44:28.856Z,-0.02
2024-01-12T19:46:55.340Z,-0.08
2024-01-12T19:49:21.846Z,0.03
2024-01-12T19:51:48.336Z,0.03
2024-01-12T19:54:14.781Z,0.02
2024-01-12T19:56:41.496Z,-0.03
2024-01-12T19:59:08.031Z,-0.04
2024-01-12T20:01:34.762Z,0.02
2024-01-12T20:04:01.590Z,-0.06
2024-01-12T20:06:28.190Z,-0.08
2024-01-12T20:08:54.845Z,0.08
2024-01-12T20:11:21.367Z,0.10
2024-01-12T20:13:47.765Z,0.12
2024-01-12T20:16:14.340Z,0.02
2024-01-12T20:18:40.908Z,0.08
2024-01-12T20:21:09.306Z,0.14
2024-01-12T20:23:35.955Z,0.19
2024-01-12T20:26:02.351Z,0.21
2024-01-12T20:28:28.862Z,0.09
2024-01-12T20:30:55.322Z,0.13
2024-01-12T20:33:22.017Z,0.02
2024-01-12T20:35:48.563Z,0.00
2024-01-12T20:38:15.125Z,0.12
2024-01-12T20:40:42.260Z,0.08
2024-01-12T20:43:08.875Z,-0.01
2024-01-12T20:45:35.301Z,0.00
2024-01-12T20:48:01.751Z,-0.02
2024-01-12T20:50:28.301Z,0.05
2024-01-12T20:52:54.852Z,0.17
2024-01-12T20:55:21.260Z,0.24
2024-01-12T20:57:47.674Z,0.17
2024-01-12T21:00:14.579Z,0.13
2024-01-12T21:02:41.384Z,0.13
2024-01-12T21:05:08.758Z,0.10
2024-01-12T21:07:35.183Z,0.17
2024-01-12T21:10:01.653Z,0.13
2024-01-12T21:12:28.076Z,0.17
2024-01-12T21:14:54.502Z,0.24
2024-01-12T21:17:20.956Z,0.21
2024-01-12T21:19:47.438Z,0.10
2024-01-12T21:22:17.262Z,0.11
2024-01-12T21:24:48.532Z,0.11
2024-01-12T21:27:15.118Z,0.12
2024-01-12T21:29:41.785Z,0.18
2024-01-12T21:32:08.492Z,0.25
2024-01-12T21:34:35.473Z,0.24
2024-01-12T21:37:02.115Z,0.22
2024-01-12T21:39:28.767Z,0.13
2024-01-12T21:41:55.243Z,0.27
2024-01-12T21:44:21.654Z,0.21
2024-01-12T21:46:48.058Z,0.11
2024-01-12T21:49:14.651Z,0.03
2024-01-12T21:51:41.320Z,0.10
2024-01-12T21:54:07.875Z,0.21
2024-01-12T21:56:34.365Z,0.08
2024-01-12T21:59:00.805Z,-0.01
2024-01-12T22:01:27.207Z,0.12
2024-01-12T22:03:53.743Z,0.10
2024-01-12T22:06:20.357Z,0.09
2024-01-12T22:08:46.872Z,0.09
2024-01-12T22:11:13.444Z,0.24
2024-01-12T22:13:39.855Z,0.19
2024-01-12T22:16:06.398Z,0.14
2024-01-12T22:18:33.020Z,0.30
2024-01-12T22:20:59.515Z,0.16
2024-01-12T22:23:25.938Z,0.06
2024-01-12T22:25:52.329Z,-0.04
2024-01-12T22:28:18.798Z,0.08
2024-01-12T22:30:45.349Z,-0.02
2024-01-12T22:33:11.983Z,0.10
2024-01-12T22:35:39.018Z,0.03
2024-01-12T22:38:05.902Z,0.04
2024-01-12T22:40:32.830Z,0.02
2024-01-12T22:42:59.476Z,0.07
2024-01-12T22:45:25.956Z,0.10
2024-01-12T22:47:52.442Z,0.02
2024-01-12T22:50:18.926Z,0.08
2024-01-12T22:52:45.282Z,0.14
2024-01-12T22:55:11.696Z,0.06
2024-01-12T22:57:38.137Z,0.09
2024-01-12T23:00:25.024Z,0.10
2024-01-12T23:02:56.378Z,0.17
2024-01-12T23:05:23.182Z,0.18
2024-01-12T23:07:49.590Z,0.10
2024-01-12T23:10:16.258Z,0.14
2024-01-12T23:12:42.609Z,0.16
2024-01-12T23:15:12.245Z,0.11
2024-01-12T23:17:46.032Z,0.17
2024-01-12T23:20:16.298Z,0.19
2024-01-12T23:22:44.598Z,0.21
2024-01-12T23:25:11.852Z,0.27
2024-01-12T23:27:39.460Z,0.14
2024-01-12T23:30:06.878Z,0.07
2024-01-12T23:32:35.512Z,0.12
2024-01-12T23:35:02.360Z,0.12
2024-01-12T23:37:29.402Z,0.12
2024-01-12T23:39:55.910Z,0.16
2024-01-12T23:42:22.673Z,0.16
2024-01-12T23:44:49.135Z,0.16
2024-01-12T23:47:16.666Z,0.13
2024-01-12T23:49:43.726Z,0.06
2024-01-12T23:52:10.580Z,0.05
2024-01-12T23:54:36.949Z,0.08
2024-01-12T23:57:03.959Z,0.11
2024-01-12T23:59:30.523Z,-0.08
